sensor_id;sensor_type;location;lat;lon;timestamp;pressure;altitude;pressure_sealevel;temperature;humidity
66381;BME280;53177;52.648;1.214;2024-02-21T00:02:04;101350.72;;;8.65;100.00
66381;BME280;53177;52.648;1.214;2024-02-21T00:04:30;101343.72;;;8.64;100.00
66381;BME280;53177;52.648;1.214;2024-02-21T00:06:55;101340.19;;;8.62;100.00
66381;BME280;53177;52.648;1.214;2024-02-21T00:09:20;101335.81;;;8.62;100.00
66381;BME280;53177;52.648;1.214;2024-02-21T00:11:46;101346.38;;;8.58;100.00
66381;BME280;53177;52.648;1.214;2024-02-21T00:14:11;101338.47;;;8.61;100.00
66381;BME280;53177;52.648;1.214;2024-02-21T00:16:37;101342.88;;;8.56;100.00
66381;BME280;53177;52.648;1.214;2024-02-21T00:19:02;101317.41;;;8.53;100.00
66381;BME280;53177;52.648;1.214;2024-02-21T00:21:27;101317.41;;;8.52;100.00
66381;BME280;53177;52.648;1.214;2024-02-21T00:23:53;101324.44;;;8.51;100.00
66381;BME280;53177;52.648;1.214;2024-02-21T00:26:18;101324.47;;;8.48;100.00
66381;BME280;53177;52.648;1.214;2024-02-21T00:28:43;101342.88;;;8.54;100.00
66381;BME280;53177;52.648;1.214;2024-02-21T00:31:10;101343.78;;;8.52;100.00
66381;BME280;53177;52.648;1.214;2024-02-21T00:33:35;101339.38;;;8.51;100.00
66381;BME280;53177;52.648;1.214;2024-02-21T00:36:01;101338.47;;;8.55;100.00
66381;BME280;53177;52.648;1.214;2024-02-21T00:38:26;101321.84;;;8.50;100.00
66381;BME280;53177;52.648;1.214;2024-02-21T00:40:51;101313.91;;;8.51;100.00
66381;BME280;53177;52.648;1.214;2024-02-21T00:43:17;101308.63;;;8.51;100.00
66381;BME280;53177;52.648;1.214;2024-02-21T00:45:42;101306.03;;;8.50;100.00
66381;BME280;53177;52.648;1.214;2024-02-21T00:48:08;101306.03;;;8.45;100.00
66381;BME280;53177;52.648;1.214;2024-02-21T00:50:33;101303.41;;;8.42;100.00
66381;BME280;53177;52.648;1.214;2024-02-21T00:52:59;101301.63;;;8.44;100.00
66381;BME280;53177;52.648;1.214;2024-02-21T00:55:24;101300.78;;;8.42;100.00
66381;BME280;53177;52.648;1.214;2024-02-21T00:57:49;101297.28;;;8.37;100.00
66381;BME280;53177;52.648;1.214;2024-02-21T01:00:15;101300.78;;;8.38;100.00
66381;BME280;53177;52.648;1.214;2024-02-21T01:02:41;101299.91;;;8.37;100.00
66381;BME280;53177;52.648;1.214;2024-02-21T01:05:07;101298.16;;;8.42;100.00
66381;BME280;53177;52.648;1.214;2024-02-21T01:07:33;101298.16;;;8.42;100.00
66381;BME280;53177;52.648;1.214;2024-02-21T01:09:58;101278.84;;;8.39;100.00
66381;BME280;53177;52.648;1.214;2024-02-21T01:12:23;101275.28;;;8.44;100.00
66381;BME280;53177;52.648;1.214;2024-02-21T01:14:49;101277.06;;;8.38;100.00
66381;BME280;53177;52.648;1.214;2024-02-21T01:17:14;101272.63;;;8.43;100.00
66381;BME280;53177;52.648;1.214;2024-02-21T01:19:40;101268.28;;;8.42;100.00
66381;BME280;53177;52.648;1.214;2024-02-21T01:22:05;101261.22;;;8.44;100.00
66381;BME280;53177;52.648;1.214;2024-02-21T01:24:31;101263.88;;;8.39;100.00
66381;BME280;53177;52.648;1.214;2024-02-21T01:26:56;101274.44;;;8.42;100.00
66381;BME280;53177;52.648;1.214;2024-02-21T01:29:22;101277.00;;;8.47;100.00
66381;BME280;53177;52.648;1.214;2024-02-21T01:31:47;101283.22;;;8.41;100.00
66381;BME280;53177;52.648;1.214;2024-02-21T01:34:13;101287.59;;;8.39;100.00
66381;BME280;53177;52.648;1.214;2024-02-21T01:36:38;101269.16;;;8.36;100.00
66381;BME280;53177;52.648;1.214;2024-02-21T01:39:04;101266.50;;;8.39;100.00
66381;BME280;53177;52.648;1.214;2024-02-21T01:41:30;101258.63;;;8.36;100.00
66381;BME280;53177;52.648;1.214;2024-02-21T01:43:56;101254.25;;;8.38;100.00
66381;BME280;53177;52.648;1.214;2024-02-21T01:46:21;101245.47;;;8.35;100.00
66381;BME280;53177;52.648;1.214;2024-02-21T01:48:47;101241.06;;;8.38;100.00
66381;BME280;53177;52.648;1.214;2024-02-21T01:51:12;101243.72;;;8.34;100.00
66381;BME280;53177;52.648;1.214;2024-02-21T01:53:43;101243.72;;;8.34;100.00
66381;BME280;53177;52.648;1.214;2024-02-21T01:56:08;101236.72;;;8.31;100.00
66381;BME280;53177;52.648;1.214;2024-02-21T01:58:36;101235.84;;;8.30;100.00
66381;BME280;53177;52.648;1.214;2024-02-21T02:01:02;101221.78;;;8.30;100.00
66381;BME280;53177;52.648;1.214;2024-02-21T02:03:28;101205.06;;;8.28;100.00
66381;BME280;53177;52.648;1.214;2024-02-21T02:05:55;101202.41;;;8.28;100.00
66381;BME280;53177;52.648;1.214;2024-02-21T02:08:20;101200.69;;;8.25;100.00
66381;BME280;53177;52.648;1.214;2024-02-21T02:10:49;101189.25;;;8.28;100.00
66381;BME280;53177;52.648;1.214;2024-02-21T02:13:15;101178.72;;;8.25;100.00
66381;BME280;53177;52.648;1.214;2024-02-21T02:15:44;101179.63;;;8.24;100.00
66381;BME280;53177;52.648;1.214;2024-02-21T02:18:11;101179.59;;;8.25;100.00
66381;BME280;53177;52.648;1.214;2024-02-21T02:20:37;101172.56;;;8.24;100.00
66381;BME280;53177;52.648;1.214;2024-02-21T02:25:52;101152.41;;;8.29;100.00
66381;BME280;53177;52.648;1.214;2024-02-21T02:28:18;101148.84;;;8.32;100.00
66381;BME280;53177;52.648;1.214;2024-02-21T02:30:44;101146.25;;;8.26;100.00
66381;BME280;53177;52.648;1.214;2024-02-21T02:33:09;101138.31;;;8.24;100.00
66381;BME280;53177;52.648;1.214;2024-02-21T02:35:35;101133.06;;;8.27;100.00
66381;BME280;53177;52.648;1.214;2024-02-21T02:38:04;101134.81;;;8.28;100.00
66381;BME280;53177;52.648;1.214;2024-02-21T02:40:34;101125.16;;;8.29;100.00
66381;BME280;53177;52.648;1.214;2024-02-21T02:43:00;101120.78;;;8.31;100.00
66381;BME280;53177;52.648;1.214;2024-02-21T02:45:25;101117.22;;;8.32;100.00
66381;BME280;53177;52.648;1.214;2024-02-21T02:47:54;101114.59;;;8.34;100.00
66381;BME280;53177;52.648;1.214;2024-02-21T02:50:19;101111.09;;;8.33;100.00
66381;BME280;53177;52.648;1.214;2024-02-21T02:52:46;101112.00;;;8.29;100.00
66381;BME280;53177;52.648;1.214;2024-02-21T02:55:11;101105.81;;;8.31;100.00
66381;BME280;53177;52.648;1.214;2024-02-21T02:57:37;101110.22;;;8.29;100.00
66381;BME280;53177;52.648;1.214;2024-02-21T03:00:03;101105.84;;;8.27;100.00
66381;BME280;53177;52.648;1.214;2024-02-21T03:02:29;101108.47;;;8.27;100.00
66381;BME280;53177;52.648;1.214;2024-02-21T03:04:56;101106.75;;;8.17;100.00
66381;BME280;53177;52.648;1.214;2024-02-21T03:07:22;101110.25;;;8.20;100.00
66381;BME280;53177;52.648;1.214;2024-02-21T03:09:47;101109.34;;;8.27;100.00
66381;BME280;53177;52.648;1.214;2024-02-21T03:12:12;101105.88;;;8.24;100.00
66381;BME280;53177;52.648;1.214;2024-02-21T03:14:44;101091.81;;;8.22;100.00
66381;BME280;53177;52.648;1.214;2024-02-21T03:17:09;101080.44;;;8.18;100.00
66381;BME280;53177;52.648;1.214;2024-02-21T03:19:35;101080.44;;;8.18;100.00
66381;BME280;53177;52.648;1.214;2024-02-21T03:22:00;101086.56;;;8.19;100.00
66381;BME280;53177;52.648;1.214;2024-02-21T03:24:25;101074.28;;;8.18;100.00
66381;BME280;53177;52.648;1.214;2024-02-21T03:26:51;101075.16;;;8.20;100.00
66381;BME280;53177;52.648;1.214;2024-02-21T03:29:16;101067.25;;;8.17;100.00
66381;BME280;53177;52.648;1.214;2024-02-21T03:31:42;101066.44;;;8.12;100.00
66381;BME280;53177;52.648;1.214;2024-02-21T03:34:07;101062.94;;;8.08;100.00
66381;BME280;53177;52.648;1.214;2024-02-21T03:36:33;101054.19;;;8.05;100.00
66381;BME280;53177;52.648;1.214;2024-02-21T03:38:59;101050.72;;;7.97;100.00
66381;BME280;53177;52.648;1.214;2024-02-21T03:41:24;101042.81;;;7.95;100.00
66381;BME280;53177;52.648;1.214;2024-02-21T03:43:49;101026.22;;;7.89;100.00
66381;BME280;53177;52.648;1.214;2024-02-21T03:46:15;101021.78;;;7.92;100.00
66381;BME280;53177;52.648;1.214;2024-02-21T03:48:40;101020.94;;;7.87;100.00
66381;BME280;53177;52.648;1.214;2024-02-21T03:51:06;101012.25;;;7.77;100.00
66381;BME280;53177;52.648;1.214;2024-02-21T03:53:31;101004.34;;;7.77;100.00
66381;BME280;53177;52.648;1.214;2024-02-21T03:55:57;101003.47;;;7.77;100.00
66381;BME280;53177;52.648;1.214;2024-02-21T03:58:27;101004.38;;;7.74;100.00
66381;BME280;53177;52.648;1.214;2024-02-21T04:00:53;101004.34;;;7.77;100.00
66381;BME280;53177;52.648;1.214;2024-02-21T04:03:18;101004.34;;;7.79;100.00
66381;BME280;53177;52.648;1.214;2024-02-21T04:05:45;101004.34;;;7.77;100.00
66381;BME280;53177;52.648;1.214;2024-02-21T04:08:11;100993.84;;;7.74;100.00
66381;BME280;53177;52.648;1.214;2024-02-21T04:10:37;100992.09;;;7.75;100.00
66381;BME280;53177;52.648;1.214;2024-02-21T04:13:03;100985.91;;;7.77;100.00
66381;BME280;53177;52.648;1.214;2024-02-21T04:15:28;100980.72;;;7.71;100.00
66381;BME280;53177;52.648;1.214;2024-02-21T04:17:54;100975.47;;;7.65;100.00
66381;BME280;53177;52.648;1.214;2024-02-21T04:20:20;100966.69;;;7.68;100.00
66381;BME280;53177;52.648;1.214;2024-02-21T04:22:45;100973.75;;;7.63;100.00
66381;BME280;53177;52.648;1.214;2024-02-21T04:25:11;100962.34;;;7.64;100.00
66381;BME280;53177;52.648;1.214;2024-02-21T04:27:38;100961.47;;;7.60;100.00
66381;BME280;53177;52.648;1.214;2024-02-21T04:30:05;100952.69;;;7.63;100.00
66381;BME280;53177;52.648;1.214;2024-02-21T04:32:32;100947.38;;;7.67;100.00
66381;BME280;53177;52.648;1.214;2024-02-21T04:34:57;100945.63;;;7.68;100.00
66381;BME280;53177;52.648;1.214;2024-02-21T04:37:23;100939.53;;;7.64;100.00
66381;BME280;53177;52.648;1.214;2024-02-21T04:39:49;100936.91;;;7.60;100.00
66381;BME280;53177;52.648;1.214;2024-02-21T04:42:14;100931.66;;;7.60;100.00
66381;BME280;53177;52.648;1.214;2024-02-21T04:44:40;100930.81;;;7.56;100.00
66381;BME280;53177;52.648;1.214;2024-02-21T04:47:06;100929.03;;;7.58;100.00
66381;BME280;53177;52.648;1.214;2024-02-21T04:49:32;100924.63;;;7.60;100.00
66381;BME280;53177;52.648;1.214;2024-02-21T04:51:58;100922.03;;;7.56;100.00
66381;BME280;53177;52.648;1.214;2024-02-21T04:54:23;100921.16;;;7.55;100.00
66381;BME280;53177;52.648;1.214;2024-02-21T04:56:49;100923.75;;;7.60;100.00
66381;BME280;53177;52.648;1.214;2024-02-21T04:59:14;100913.25;;;7.55;100.00
66381;BME280;53177;52.648;1.214;2024-02-21T05:01:40;100908.00;;;7.55;100.00
66381;BME280;53177;52.648;1.214;2024-02-21T05:04:05;100890.47;;;7.57;100.00
66381;BME280;53177;52.648;1.214;2024-02-21T05:06:31;100880.84;;;7.53;100.00
66381;BME280;53177;52.648;1.214;2024-02-21T05:08:56;100874.69;;;7.51;100.00
66381;BME280;53177;52.648;1.214;2024-02-21T05:11:23;100876.44;;;7.52;100.00
66381;BME280;53177;52.648;1.214;2024-02-21T05:13:48;100871.22;;;7.49;100.00
66381;BME280;53177;52.648;1.214;2024-02-21T05:16:14;100859.75;;;7.56;100.00
66381;BME280;53177;52.648;1.214;2024-02-21T05:18:40;100856.31;;;7.50;100.00
66381;BME280;53177;52.648;1.214;2024-02-21T05:21:05;100838.72;;;7.50;100.00
66381;BME280;53177;52.648;1.214;2024-02-21T05:23:31;100837.81;;;7.54;100.00
66381;BME280;53177;52.648;1.214;2024-02-21T05:25:56;100844.03;;;7.49;100.00
66381;BME280;53177;52.648;1.214;2024-02-21T05:28:22;100834.34;;;7.52;100.00
66381;BME280;53177;52.648;1.214;2024-02-21T05:30:47;100837.81;;;7.56;100.00
66381;BME280;53177;52.648;1.214;2024-02-21T05:33:13;100821.19;;;7.52;100.00
66381;BME280;53177;52.648;1.214;2024-02-21T05:35:46;100814.22;;;7.50;100.00
66381;BME280;53177;52.648;1.214;2024-02-21T05:38:11;100820.31;;;7.50;100.00
66381;BME280;53177;52.648;1.214;2024-02-21T05:40:37;100811.53;;;7.51;100.00
66381;BME280;53177;52.648;1.214;2024-02-21T05:43:02;100802.75;;;7.55;100.00
66381;BME280;53177;52.648;1.214;2024-02-21T05:45:28;100798.38;;;7.53;100.00
66381;BME280;53177;52.648;1.214;2024-02-21T05:47:53;100782.56;;;7.54;100.00
66381;BME280;53177;52.648;1.214;2024-02-21T05:50:19;100784.34;;;7.51;100.00
66381;BME280;53177;52.648;1.214;2024-02-21T05:52:46;100772.16;;;7.45;100.00
66381;BME280;53177;52.648;1.214;2024-02-21T05:55:12;100768.63;;;7.43;100.00
66381;BME280;53177;52.648;1.214;2024-02-21T05:57:37;100756.34;;;7.45;100.00
66381;BME280;53177;52.648;1.214;2024-02-21T06:00:04;100760.72;;;7.49;100.00
66381;BME280;53177;52.648;1.214;2024-02-21T06:02:32;100757.22;;;7.46;100.00
66381;BME280;53177;52.648;1.214;2024-02-21T06:04:58;100739.69;;;7.45;100.00
66381;BME280;53177;52.648;1.214;2024-02-21T06:07:23;100729.16;;;7.45;100.00
66381;BME280;53177;52.648;1.214;2024-02-21T06:09:49;100717.72;;;7.47;100.00
66381;BME280;53177;52.648;1.214;2024-02-21T06:12:14;100713.38;;;7.45;100.00
66381;BME280;53177;52.648;1.214;2024-02-21T06:14:40;100704.63;;;7.46;100.00
66381;BME280;53177;52.648;1.214;2024-02-21T06:17:05;100716.91;;;7.44;100.00
66381;BME280;53177;52.648;1.214;2024-02-21T06:19:30;100700.28;;;7.42;100.00
66381;BME280;53177;52.648;1.214;2024-02-21T06:21:56;100691.50;;;7.43;100.00
66381;BME280;53177;52.648;1.214;2024-02-21T06:24:21;100701.16;;;7.42;100.00
66381;BME280;53177;52.648;1.214;2024-02-21T06:26:47;100685.38;;;7.41;100.00
66381;BME280;53177;52.648;1.214;2024-02-21T06:29:12;100687.13;;;7.40;100.00
66381;BME280;53177;52.648;1.214;2024-02-21T06:31:39;100671.34;;;7.42;100.00
66381;BME280;53177;52.648;1.214;2024-02-21T06:34:05;100663.47;;;7.39;100.00
66381;BME280;53177;52.648;1.214;2024-02-21T06:36:30;100646.81;;;7.38;100.00
66381;BME280;53177;52.648;1.214;2024-02-21T06:38:56;100660.81;;;7.42;100.00
66381;BME280;53177;52.648;1.214;2024-02-21T06:41:21;100646.69;;;7.47;100.00
66381;BME280;53177;52.648;1.214;2024-02-21T06:43:47;100631.00;;;7.41;100.00
66381;BME280;53177;52.648;1.214;2024-02-21T06:46:26;100631.91;;;7.39;100.00
66381;BME280;53177;52.648;1.214;2024-02-21T06:48:52;100628.38;;;7.41;100.00
66381;BME280;53177;52.648;1.214;2024-02-21T06:51:17;100632.75;;;7.41;100.00
66381;BME280;53177;52.648;1.214;2024-02-21T06:53:43;100616.09;;;7.42;100.00
66381;BME280;53177;52.648;1.214;2024-02-21T06:56:09;100618.72;;;7.40;100.00
66381;BME280;53177;52.648;1.214;2024-02-21T06:58:35;100613.47;;;7.42;100.00
66381;BME280;53177;52.648;1.214;2024-02-21T07:01:01;100606.44;;;7.41;100.00
66381;BME280;53177;52.648;1.214;2024-02-21T07:03:27;100601.19;;;7.42;100.00
66381;BME280;53177;52.648;1.214;2024-02-21T07:05:52;100599.44;;;7.43;100.00
66381;BME280;53177;52.648;1.214;2024-02-21T07:08:17;100586.22;;;7.44;100.00
66381;BME280;53177;52.648;1.214;2024-02-21T07:10:43;100577.47;;;7.44;100.00
66381;BME280;53177;52.648;1.214;2024-02-21T07:13:08;100564.25;;;7.47;100.00
66381;BME280;53177;52.648;1.214;2024-02-21T07:15:34;100559.00;;;7.47;100.00
66381;BME280;53177;52.648;1.214;2024-02-21T07:17:59;100564.25;;;7.50;100.00
66381;BME280;53177;52.648;1.214;2024-02-21T07:20:25;100552.91;;;7.46;100.00
66381;BME280;53177;52.648;1.214;2024-02-21T07:22:51;100559.00;;;7.50;100.00
66381;BME280;53177;52.648;1.214;2024-02-21T07:25:16;100556.38;;;7.48;100.00
66381;BME280;53177;52.648;1.214;2024-02-21T07:27:43;100549.28;;;7.53;100.00
66381;BME280;53177;52.648;1.214;2024-02-21T07:30:08;100562.47;;;7.52;100.00
66381;BME280;53177;52.648;1.214;2024-02-21T07:32:34;100536.16;;;7.52;100.00
66381;BME280;53177;52.648;1.214;2024-02-21T07:34:59;100524.69;;;7.57;100.00
66381;BME280;53177;52.648;1.214;2024-02-21T07:37:25;100529.94;;;7.57;100.00
66381;BME280;53177;52.648;1.214;2024-02-21T07:39:50;100530.78;;;7.58;100.00
66381;BME280;53177;52.648;1.214;2024-02-21T07:42:16;100530.84;;;7.56;100.00
66381;BME280;53177;52.648;1.214;2024-02-21T07:44:41;100512.41;;;7.56;100.00
66381;BME280;53177;52.648;1.214;2024-02-21T07:47:06;100502.72;;;7.60;100.00
66381;BME280;53177;52.648;1.214;2024-02-21T07:49:32;100489.50;;;7.64;100.00
66381;BME280;53177;52.648;1.214;2024-02-21T07:52:00;100488.63;;;7.64;100.00
66381;BME280;53177;52.648;1.214;2024-02-21T07:54:25;100475.41;;;7.67;100.00
66381;BME280;53177;52.648;1.214;2024-02-21T07:56:51;100471.03;;;7.67;100.00
66381;BME280;53177;52.648;1.214;2024-02-21T07:59:16;100463.13;;;7.67;100.00
66381;BME280;53177;52.648;1.214;2024-02-21T08:01:42;100463.94;;;7.71;100.00
66381;BME280;53177;52.648;1.214;2024-02-21T08:04:08;100462.25;;;7.67;100.00
66381;BME280;53177;52.648;1.214;2024-02-21T08:06:33;100462.16;;;7.73;100.00
66381;BME280;53177;52.648;1.214;2024-02-21T08:08:59;100435.00;;;7.71;100.00
66381;BME280;53177;52.648;1.214;2024-02-21T08:11:25;100443.78;;;7.71;100.00
66381;BME280;53177;52.648;1.214;2024-02-21T08:13:51;100450.78;;;7.71;100.00
66381;BME280;53177;52.648;1.214;2024-02-21T08:16:16;100442.91;;;7.71;100.00
66381;BME280;53177;52.648;1.214;2024-02-21T08:18:44;100428.81;;;7.73;100.00
66381;BME280;53177;52.648;1.214;2024-02-21T08:21:09;100408.69;;;7.71;100.00
66381;BME280;53177;52.648;1.214;2024-02-21T08:23:35;100392.00;;;7.72;100.00
66381;BME280;53177;52.648;1.214;2024-02-21T08:26:03;100376.13;;;7.76;100.00
66381;BME280;53177;52.648;1.214;2024-02-21T08:28:29;100370.84;;;7.76;100.00
66381;BME280;53177;52.648;1.214;2024-02-21T08:30:54;100369.16;;;7.74;100.00
66381;BME280;53177;52.648;1.214;2024-02-21T08:33:20;100370.91;;;7.73;100.00
66381;BME280;53177;52.648;1.214;2024-02-21T08:35:50;100350.75;;;7.72;100.00
66381;BME280;53177;52.648;1.214;2024-02-21T08:38:15;100346.34;;;7.73;100.00
66381;BME280;53177;52.648;1.214;2024-02-21T08:40:40;100335.06;;;7.66;100.00
66381;BME280;53177;52.648;1.214;2024-02-21T08:43:06;100334.13;;;7.69;100.00
66381;BME280;53177;52.648;1.214;2024-02-21T08:45:31;100325.41;;;7.67;100.00
66381;BME280;53177;52.648;1.214;2024-02-21T08:47:57;100321.91;;;7.68;100.00
66381;BME280;53177;52.648;1.214;2024-02-21T08:50:22;100320.16;;;7.67;100.00
66381;BME280;53177;52.648;1.214;2024-02-21T08:52:48;100306.19;;;7.63;100.00
66381;BME280;53177;52.648;1.214;2024-02-21T08:55:13;100299.16;;;7.62;100.00
66381;BME280;53177;52.648;1.214;2024-02-21T08:57:38;100271.97;;;7.63;100.00
66381;BME280;53177;52.648;1.214;2024-02-21T09:00:05;100271.09;;;7.63;100.00
66381;BME280;53177;52.648;1.214;2024-02-21T09:02:44;100282.47;;;7.65;100.00
66381;BME280;53177;52.648;1.214;2024-02-21T09:05:10;100281.63;;;7.61;100.00
66381;BME280;53177;52.648;1.214;2024-02-21T09:07:35;100295.72;;;7.60;100.00
66381;BME280;53177;52.648;1.214;2024-02-21T09:10:01;100298.34;;;7.60;100.00
66381;BME280;53177;52.648;1.214;2024-02-21T09:12:26;100284.31;;;7.60;100.00
66381;BME280;53177;52.648;1.214;2024-02-21T09:14:52;100293.09;;;7.59;100.00
66381;BME280;53177;52.648;1.214;2024-02-21T09:17:17;100279.94;;;7.59;100.00
66381;BME280;53177;52.648;1.214;2024-02-21T09:19:44;100278.16;;;7.61;100.00
66381;BME280;53177;52.648;1.214;2024-02-21T09:22:09;100276.34;;;7.64;100.00
66381;BME280;53177;52.648;1.214;2024-02-21T09:24:34;100268.53;;;7.60;100.00
66381;BME280;53177;52.648;1.214;2024-02-21T09:27:00;100263.22;;;7.63;100.00
66381;BME280;53177;52.648;1.214;2024-02-21T09:29:25;100257.06;;;7.64;100.00
66381;BME280;53177;52.648;1.214;2024-02-21T09:31:51;100251.75;;;7.65;100.00
66381;BME280;53177;52.648;1.214;2024-02-21T09:34:17;100221.91;;;7.66;100.00
66381;BME280;53177;52.648;1.214;2024-02-21T09:36:44;100215.75;;;7.67;100.00
66381;BME280;53177;52.648;1.214;2024-02-21T09:39:10;100235.88;;;7.70;100.00
66381;BME280;53177;52.648;1.214;2024-02-21T09:41:45;100221.84;;;7.69;100.00
66381;BME280;53177;52.648;1.214;2024-02-21T09:44:13;100219.19;;;7.71;100.00
66381;BME280;53177;52.648;1.214;2024-02-21T09:51:54;100184.06;;;7.73;100.00
66381;BME280;53177;52.648;1.214;2024-02-21T09:54:21;100192.84;;;7.72;100.00
66381;BME280;53177;52.648;1.214;2024-02-21T09:56:47;100177.97;;;7.71;100.00
66381;BME280;53177;52.648;1.214;2024-02-21T09:59:15;100161.25;;;7.72;100.00
66381;BME280;53177;52.648;1.214;2024-02-21T10:01:42;100157.72;;;7.73;100.00
66381;BME280;53177;52.648;1.214;2024-02-21T10:04:08;100155.97;;;7.74;100.00
66381;BME280;53177;52.648;1.214;2024-02-21T10:06:34;100146.31;;;7.76;100.00
66381;BME280;53177;52.648;1.214;2024-02-21T10:09:00;100142.78;;;7.75;100.00
66381;BME280;53177;52.648;1.214;2024-02-21T10:11:25;100136.66;;;7.75;100.00
66381;BME280;53177;52.648;1.214;2024-02-21T10:13:51;100111.16;;;7.78;100.00
66381;BME280;53177;52.648;1.214;2024-02-21T10:16:27;100126.06;;;7.78;100.00
66381;BME280;53177;52.648;1.214;2024-02-21T10:18:54;100106.78;;;7.77;100.00
66381;BME280;53177;52.648;1.214;2024-02-21T10:21:19;100105.88;;;7.78;100.00
66381;BME280;53177;52.648;1.214;2024-02-21T10:23:48;100084.84;;;7.77;100.00
66381;BME280;53177;52.648;1.214;2024-02-21T10:26:14;100086.56;;;7.79;100.00
66381;BME280;53177;52.648;1.214;2024-02-21T10:28:40;100084.72;;;7.83;100.00
66381;BME280;53177;52.648;1.214;2024-02-21T10:31:21;100077.66;;;7.85;100.00
66381;BME280;53177;52.648;1.214;2024-02-21T10:33:56;100072.41;;;7.83;100.00
66381;BME280;53177;52.648;1.214;2024-02-21T10:36:22;100058.34;;;7.86;100.00
66381;BME280;53177;52.648;1.214;2024-02-21T10:38:49;100052.19;;;7.86;100.00
66381;BME280;53177;52.648;1.214;2024-02-21T10:41:15;100041.59;;;7.89;100.00
66381;BME280;53177;52.648;1.214;2024-02-21T10:43:50;100029.22;;;7.92;100.00
66381;BME280;53177;52.648;1.214;2024-02-21T10:46:19;100034.56;;;7.91;100.00
66381;BME280;53177;52.648;1.214;2024-02-21T10:48:45;100032.72;;;7.93;100.00
66381;BME280;53177;52.648;1.214;2024-02-21T10:51:18;100029.16;;;7.95;100.00
66381;BME280;53177;52.648;1.214;2024-02-21T10:56:33;100014.16;;;7.99;100.00
66381;BME280;53177;52.648;1.214;2024-02-21T10:59:05;100001.03;;;7.97;100.00
66381;BME280;53177;52.648;1.214;2024-02-21T11:01:31;100003.63;;;7.99;100.00
66381;BME280;53177;52.648;1.214;2024-02-21T11:04:02;99992.19;;;8.01;100.00
66381;BME280;53177;52.648;1.214;2024-02-21T11:06:29;99996.50;;;8.04;100.00
66381;BME280;53177;52.648;1.214;2024-02-21T11:11:27;99967.44;;;8.07;100.00
66381;BME280;53177;52.648;1.214;2024-02-21T11:13:52;99952.41;;;8.12;100.00
66381;BME280;53177;52.648;1.214;2024-02-21T11:16:22;99942.78;;;8.11;100.00
66381;BME280;53177;52.648;1.214;2024-02-21T11:18:48;99941.00;;;8.11;100.00
66381;BME280;53177;52.648;1.214;2024-02-21T11:21:13;99943.63;;;8.13;100.00
66381;BME280;53177;52.648;1.214;2024-02-21T11:23:39;99924.25;;;8.14;100.00
66381;BME280;53177;52.648;1.214;2024-02-21T11:26:10;99916.34;;;8.15;100.00
66381;BME280;53177;52.648;1.214;2024-02-21T11:28:44;99901.34;;;8.17;100.00
66381;BME280;53177;52.648;1.214;2024-02-21T11:31:13;99896.06;;;8.19;100.00
66381;BME280;53177;52.648;1.214;2024-02-21T11:33:40;99894.16;;;8.24;100.00
66381;BME280;53177;52.648;1.214;2024-02-21T11:36:07;99860.78;;;8.24;100.00
66381;BME280;53177;52.648;1.214;2024-02-21T11:38:33;99867.84;;;8.22;100.00
66381;BME280;53177;52.648;1.214;2024-02-21T11:40:58;99862.56;;;8.24;100.00
66381;BME280;53177;52.648;1.214;2024-02-21T11:43:23;99851.09;;;8.25;100.00
66381;BME280;53177;52.648;1.214;2024-02-21T11:45:49;99839.66;;;8.26;100.00
66381;BME280;53177;52.648;1.214;2024-02-21T11:48:17;99824.75;;;8.25;100.00
66381;BME280;53177;52.648;1.214;2024-02-21T11:50:52;99815.91;;;8.29;100.00
66381;BME280;53177;52.648;1.214;2024-02-21T11:53:18;99801.88;;;8.28;100.00
66381;BME280;53177;52.648;1.214;2024-02-21T11:55:45;99800.97;;;8.28;100.00
66381;BME280;53177;52.648;1.214;2024-02-21T11:58:11;99784.31;;;8.29;100.00
66381;BME280;53177;52.648;1.214;2024-02-21T12:00:37;99778.16;;;8.28;100.00
66381;BME280;53177;52.648;1.214;2024-02-21T12:03:03;99753.47;;;8.32;100.00
66381;BME280;53177;52.648;1.214;2024-02-21T12:05:29;99763.09;;;8.34;100.00
66381;BME280;53177;52.648;1.214;2024-02-21T12:07:55;99752.53;;;8.35;100.00
66381;BME280;53177;52.648;1.214;2024-02-21T12:10:21;99739.38;;;8.35;100.00
66381;BME280;53177;52.648;1.214;2024-02-21T12:12:46;99762.97;;;8.38;100.00
66381;BME280;53177;52.648;1.214;2024-02-21T12:15:12;99731.47;;;8.35;100.00
66381;BME280;53177;52.648;1.214;2024-02-21T12:17:39;99731.41;;;8.37;100.00
66381;BME280;53177;52.648;1.214;2024-02-21T12:20:06;99702.50;;;8.35;100.00
66381;BME280;53177;52.648;1.214;2024-02-21T12:22:37;99713.84;;;8.37;100.00
66381;BME280;53177;52.648;1.214;2024-02-21T12:25:04;99703.28;;;8.37;100.00
66381;BME280;53177;52.648;1.214;2024-02-21T12:27:29;99692.66;;;8.40;100.00
66381;BME280;53177;52.648;1.214;2024-02-21T12:29:55;99687.28;;;8.43;100.00
66381;BME280;53177;52.648;1.214;2024-02-21T12:32:20;99668.06;;;8.41;100.00
66381;BME280;53177;52.648;1.214;2024-02-21T12:34:46;99681.13;;;8.44;100.00
66381;BME280;53177;52.648;1.214;2024-02-21T12:37:11;99676.66;;;8.46;100.00
66381;BME280;53177;52.648;1.214;2024-02-21T12:39:41;99655.69;;;8.43;100.00
66381;BME280;53177;52.648;1.214;2024-02-21T12:42:06;99660.00;;;8.46;100.00
66381;BME280;53177;52.648;1.214;2024-02-21T12:44:32;99657.41;;;8.44;100.00
66381;BME280;53177;52.648;1.214;2024-02-21T12:46:57;99649.47;;;8.46;100.00
66381;BME280;53177;52.648;1.214;2024-02-21T12:49:23;99621.25;;;8.49;100.00
66381;BME280;53177;52.648;1.214;2024-02-21T12:51:49;99616.75;;;8.53;100.00
66381;BME280;53177;52.648;1.214;2024-02-21T12:54:16;99604.47;;;8.52;100.00
66381;BME280;53177;52.648;1.214;2024-02-21T12:56:41;99614.81;;;8.58;100.00
66381;BME280;53177;52.648;1.214;2024-02-21T12:59:06;99589.31;;;8.58;100.00
66381;BME280;53177;52.648;1.214;2024-02-21T13:01:38;99584.06;;;8.58;100.00